createdAt,value
2023-04-18T00:04:02.564Z,13.02
2023-04-18T00:09:05.759Z,13.06
2023-04-18T00:14:07.268Z,12.96
2023-04-18T00:19:08.862Z,12.85
2023-04-18T00:24:10.848Z,12.79
2023-04-18T00:29:12.318Z,12.80
2023-04-18T00:34:13.999Z,12.88
2023-04-18T00:39:15.641Z,12.91
2023-04-18T00:44:17.920Z,12.94
2023-04-18T00:49:19.658Z,13.06
2023-04-18T00:54:21.922Z,13.00
2023-04-18T00:59:23.489Z,12.93
2023-04-18T01:04:25.073Z,12.90
2023-04-18T01:09:26.843Z,12.88
2023-04-18T01:14:28.369Z,12.91
2023-04-18T01:19:30.444Z,12.94
2023-04-18T01:24:31.952Z,12.72
2023-04-18T01:29:33.407Z,12.68
2023-04-18T01:34:34.895Z,12.64
2023-04-18T01:39:40.541Z,12.75
2023-04-18T01:44:41.997Z,12.62
2023-04-18T01:49:43.431Z,12.74
2023-04-18T01:54:44.890Z,12.65
2023-04-18T01:59:47.193Z,12.71
2023-04-18T02:04:48.644Z,12.70
2023-04-18T02:09:50.084Z,12.64
2023-04-18T02:14:52.899Z,12.74
2023-04-18T02:19:54.511Z,12.68
2023-04-18T02:24:55.971Z,12.69
2023-04-18T02:29:57.419Z,12.64
2023-04-18T02:34:59.180Z,12.68
2023-04-18T02:40:00.749Z,12.59
2023-04-18T02:45:07.934Z,12.55
2023-04-18T02:50:10.223Z,12.47
2023-04-18T02:55:12.270Z,12.49
2023-04-18T03:00:17.318Z,12.47
2023-04-18T03:05:37.557Z,12.61
2023-04-18T03:10:40.753Z,12.58
2023-04-18T03:15:43.293Z,12.43
2023-04-18T03:20:45.468Z,12.34
2023-04-18T03:25:47.147Z,12.48
2023-04-18T03:30:48.992Z,12.37
2023-04-18T03:35:51.191Z,12.43
2023-04-18T03:40:52.793Z,12.48
2023-04-18T03:46:01.497Z,12.46
2023-04-18T03:51:03.553Z,12.43
2023-04-18T03:56:06.389Z,12.53
2023-04-18T04:01:23.647Z,12.61
2023-04-18T04:06:27.073Z,12.60
2023-04-18T04:11:29.417Z,12.67
2023-04-18T04:16:31.188Z,12.71
2023-04-18T04:21:33.623Z,12.64
2023-04-18T04:26:35.954Z,12.66
2023-04-18T04:31:43.568Z,12.67
2023-04-18T04:36:45.297Z,12.61
2023-04-18T04:41:48.868Z,12.61
2023-04-18T04:46:53.141Z,12.62
2023-04-18T04:52:00.135Z,12.70
2023-04-18T04:57:04.002Z,12.83
2023-04-18T05:02:05.641Z,12.70
2023-04-18T05:07:07.512Z,12.57
2023-04-18T05:12:09.079Z,12.68
2023-04-18T05:17:10.577Z,12.45
2023-04-18T05:22:12.079Z,12.47
2023-04-18T05:27:15.458Z,12.50
2023-04-18T05:32:19.063Z,12.47
2023-04-18T05:37:20.626Z,12.40
2023-04-18T05:42:22.085Z,12.40
2023-04-18T05:47:23.627Z,12.45
2023-04-18T05:52:25.208Z,12.48
2023-04-18T05:57:26.666Z,12.47
2023-04-18T06:02:28.275Z,12.59
2023-04-18T06:07:29.872Z,12.67
2023-04-18T06:12:31.352Z,12.77
2023-04-18T06:17:33.015Z,12.72
2023-04-18T06:22:34.472Z,12.78
2023-04-18T06:27:39.002Z,12.95
2023-04-18T06:32:40.548Z,13.07
2023-04-18T06:37:42.692Z,13.18
2023-04-18T06:42:44.234Z,13.35
2023-04-18T06:47:46.632Z,13.49
2023-04-18T06:52:48.133Z,13.47
2023-04-18T06:57:49.624Z,13.43
2023-04-18T07:02:51.272Z,13.26
2023-04-18T07:07:52.884Z,13.24
2023-04-18T07:12:54.337Z,13.25
2023-04-18T07:17:55.834Z,13.16
2023-04-18T07:22:57.299Z,13.42
2023-04-18T07:27:58.797Z,13.52
2023-04-18T07:33:00.372Z,13.67
2023-04-18T07:38:01.938Z,13.75
2023-04-18T07:43:03.405Z,13.73
2023-04-18T07:48:05.593Z,13.98
2023-04-18T07:53:07.060Z,14.32
2023-04-18T07:58:09.042Z,14.46
2023-04-18T08:03:11.501Z,14.72
2023-04-18T08:08:13.262Z,15.03
2023-04-18T08:13:14.764Z,15.43
2023-04-18T08:18:16.293Z,15.57
2023-04-18T08:23:18.284Z,15.51
2023-04-18T08:28:19.761Z,15.70
2023-04-18T08:33:22.319Z,15.69
2023-04-18T08:38:23.766Z,15.73
2023-04-18T08:43:25.229Z,15.63
2023-04-18T08:48:27.390Z,15.67
2023-04-18T08:53:28.906Z,15.72
2023-04-18T08:58:30.464Z,15.61
2023-04-18T09:03:42.817Z,15.66
2023-04-18T09:08:55.979Z,15.72
2023-04-18T09:13:58.011Z,15.88
2023-04-18T09:19:13.703Z,16.03
2023-04-18T09:24:23.653Z,16.56
2023-04-18T09:29:43.467Z,17.07
2023-04-18T09:34:45.077Z,17.15
2023-04-18T09:39:46.618Z,17.12
2023-04-18T09:45:05.997Z,16.79
2023-04-18T09:50:09.304Z,16.56
2023-04-18T09:55:18.564Z,16.56
2023-04-18T10:00:24.466Z,17.43
2023-04-18T10:05:30.537Z,17.74
2023-04-18T10:10:32.946Z,17.58
2023-04-18T10:15:34.869Z,17.91
2023-04-18T10:20:36.423Z,18.10
2023-04-18T10:25:37.805Z,18.04
2023-04-18T10:30:39.311Z,17.71
2023-04-18T10:35:56.597Z,17.33
2023-04-18T10:41:23.532Z,17.53
2023-04-18T10:46:31.665Z,17.79
2023-04-18T10:51:34.163Z,17.71
2023-04-18T10:56:36.011Z,17.64
2023-04-18T11:01:38.093Z,17.77
2023-04-18T11:06:50.166Z,18.11
2023-04-18T11:12:11.467Z,17.98
2023-04-18T11:17:23.852Z,17.83
2023-04-18T11:22:25.413Z,17.77
2023-04-18T11:27:27.086Z,17.76
2023-04-18T11:32:28.760Z,17.89
2023-04-18T11:37:30.280Z,17.86
2023-04-18T11:42:35.275Z,17.98
2023-04-18T11:47:36.879Z,18.01
2023-04-18T11:52:40.874Z,18.08
2023-04-18T11:57:42.543Z,18.35
2023-04-18T12:02:46.107Z,18.53
2023-04-18T12:07:47.628Z,18.73
2023-04-18T12:12:50.893Z,18.80
2023-04-18T12:17:56.904Z,18.99
2023-04-18T12:22:58.442Z,18.91
2023-04-18T12:28:02.316Z,18.77
2023-04-18T12:33:04.540Z,18.80
2023-04-18T12:38:06.073Z,19.04
2023-04-18T12:43:07.574Z,19.34
2023-04-18T12:48:09.307Z,19.48
2023-04-18T12:53:10.839Z,19.65
2023-04-18T12:58:12.329Z,19.71
2023-04-18T13:03:13.988Z,19.88
2023-04-18T13:08:17.773Z,19.73
2023-04-18T13:13:19.647Z,19.94
2023-04-18T13:18:21.111Z,19.92
2023-04-18T13:23:22.556Z,20.18
2023-04-18T13:28:25.160Z,20.16
2023-04-18T13:33:26.665Z,20.08
2023-04-18T13:38:28.164Z,20.06
2023-04-18T13:43:29.874Z,19.99
2023-04-18T13:48:31.372Z,20.21
2023-04-18T13:53:32.810Z,20.35
2023-04-18T13:58:34.302Z,20.22
2023-04-18T14:03:37.908Z,19.94
2023-04-18T14:08:40.387Z,19.73
2023-04-18T14:13:41.917Z,19.79
2023-04-18T14:18:43.349Z,19.77
2023-04-18T14:23:44.789Z,19.83
2023-04-18T14:28:46.334Z,20.09
2023-04-18T14:33:47.880Z,19.87
2023-04-18T14:38:49.413Z,19.66
2023-04-18T14:43:50.944Z,19.96
2023-04-18T14:48:52.439Z,20.15
2023-04-18T14:53:53.877Z,20.39
2023-04-18T14:58:55.476Z,20.25
2023-04-18T15:03:57.178Z,19.98
2023-04-18T15:08:58.744Z,19.71
2023-04-18T15:14:00.185Z,19.71
2023-04-18T15:19:01.655Z,19.51
2023-04-18T15:24:03.229Z,19.52
2023-04-18T15:29:04.737Z,19.46
2023-04-18T15:34:07.221Z,19.52
2023-04-18T15:39:08.689Z,19.75
2023-04-18T15:44:10.167Z,20.03
2023-04-18T15:49:11.592Z,19.79
2023-04-18T15:54:13.341Z,19.56
2023-04-18T15:59:15.134Z,19.63
2023-04-18T16:04:16.873Z,19.63
2023-04-18T16:09:18.443Z,19.88
2023-04-18T16:14:19.931Z,19.60
2023-04-18T16:19:21.398Z,19.24
2023-04-18T16:24:22.947Z,19.00
2023-04-18T16:29:24.475Z,19.04
2023-04-18T16:34:25.941Z,19.09
2023-04-18T16:39:29.364Z,19.14
2023-04-18T16:44:30.872Z,19.11
2023-04-18T16:49:32.393Z,18.59
2023-04-18T16:54:33.924Z,18.36
2023-04-18T16:59:35.392Z,18.11
2023-04-18T17:04:36.860Z,18.01
2023-04-18T17:09:38.386Z,17.91
2023-04-18T17:14:39.829Z,17.88
2023-04-18T17:19:41.312Z,17.80
2023-04-18T17:24:42.840Z,17.80
2023-04-18T17:45:41.651Z,14.73
2023-04-18T17:50:43.231Z,14.86
2023-04-18T17:55:44.736Z,14.79
2023-04-18T18:00:46.278Z,14.61
2023-04-18T18:05:49.181Z,14.60
2023-04-18T18:10:50.716Z,14.35
2023-04-18T18:15:52.238Z,14.24
2023-04-18T18:21:02.066Z,14.19
2023-04-18T18:26:03.622Z,14.29
2023-04-18T18:31:05.115Z,14.09
2023-04-18T18:36:06.570Z,13.99
2023-04-18T18:41:08.201Z,13.81
2023-04-18T18:46:09.699Z,13.77
2023-04-18T18:51:11.238Z,13.67
2023-04-18T18:56:12.850Z,13.77
2023-04-18T19:01:14.412Z,13.75
2023-04-18T19:06:15.958Z,13.65
2023-04-18T19:11:17.490Z,13.60
2023-04-18T19:16:19.082Z,13.59
2023-04-18T19:21:20.667Z,13.59
2023-04-18T19:26:22.186Z,13.36
2023-04-18T19:31:23.720Z,13.35
2023-04-18T19:36:25.228Z,13.31
2023-04-18T19:41:26.662Z,13.32
2023-04-18T19:46:28.144Z,13.33
2023-04-18T19:51:29.615Z,13.16
2023-04-18T19:56:31.090Z,13.00
2023-04-18T20:01:32.610Z,13.02
2023-04-18T20:06:34.443Z,13.06
2023-04-18T20:11:35.890Z,12.95
2023-04-18T20:16:37.520Z,12.79
2023-04-18T20:21:39.004Z,12.82
2023-04-18T20:26:40.512Z,12.85
2023-04-18T20:31:41.945Z,12.67
2023-04-18T20:36:44.984Z,12.62
2023-04-18T20:41:50.104Z,12.54
2023-04-18T20:46:51.837Z,12.43
2023-04-18T20:51:53.301Z,12.44
2023-04-18T20:56:54.792Z,12.32
2023-04-18T21:01:56.341Z,12.17
2023-04-18T21:06:57.913Z,12.15
2023-04-18T21:11:59.380Z,12.07
2023-04-18T21:17:00.913Z,12.01
2023-04-18T21:22:02.585Z,11.88
2023-04-18T21:27:04.152Z,11.96
2023-04-18T21:32:05.608Z,12.00
2023-04-18T21:37:07.092Z,11.95
2023-04-18T21:42:08.590Z,11.93
2023-04-18T21:47:10.030Z,11.81
2023-04-18T21:52:11.540Z,11.85
2023-04-18T21:57:13.069Z,11.81
2023-04-18T22:02:14.570Z,11.75
2023-04-18T22:07:17.176Z,11.68
2023-04-18T22:12:18.630Z,11.74
2023-04-18T22:17:20.119Z,11.81
2023-04-18T22:22:21.611Z,11.86
2023-04-18T22:27:23.102Z,11.87
2023-04-18T22:32:24.618Z,11.83
2023-04-18T22:37:26.068Z,11.79
2023-04-18T22:42:28.766Z,11.81
2023-04-18T22:47:31.510Z,11.75
2023-04-18T22:52:34.041Z,11.80
2023-04-18T22:57:35.550Z,11.85
2023-04-18T23:02:37.271Z,11.94
2023-04-18T23:07:38.862Z,11.91
2023-04-18T23:12:40.401Z,11.83
2023-04-18T23:17:41.949Z,11.90
2023-04-18T23:22:43.404Z,11.92
2023-04-18T23:27:44.880Z,11.95
2023-04-18T23:32:46.427Z,11.91
2023-04-18T23:37:47.910Z,11.83
2023-04-18T23:42:49.396Z,11.85
2023-04-18T23:47:51.562Z,11.79
2023-04-18T23:52:53.085Z,11.93
2023-04-18T23:57:54.588Z,11.88
